Nefteyugansk, Russia
Current Conditions -  °F | °C
As of 2:30 AM on Friday 24 Oct 2014 (Local Time) from USRR Reporting Station
Clear Clear  
Wind Chill: -13°   Ceiling: Unl
Heat Index:   Visibility: 4mi
Dew Point:   Wind: 11mph
Humidity: 85%   Direction: 80°E
Pressure: 29.91"   Gusts: 18mph
Location:  61.08°N, 72.7°E
Report Text: USRR 232130Z 08005G08MPS 7000 SKC M16/M18 Q1013 NOSIG RMKQFE754 07////60
Loading
Personal Weather Stations






























Interactive Weather Map
Tropical Storm Tracking
New forecast layout! Learn more

10-Day Weather Forecast

Advertisements
Track Severe Weather on mobile